Latest Coastal Weather Observations for Smithton

IDV60701

Issued at 8:11 pm EST Monday 16 September 2019 (issued every 10 minutes, with the page automatically refreshed every 10 minutes)

About coastal observations | Map of coastal stations | Coastal observations for VIC | Marine services | Other Formats
Station Details ID: 091292 Name: SMITHTON AERODROME Lat: -40.83 Lon: 145.08 Height: 7.5 m
Data from the previous 72 hours. | See also: Recent months at Smithton
Date/Time
EST
Wind Sea
Height
m
Swell Vis
km
Cloud Weather Temp
°C
Press
hPa
Rain since
9am
mm
Dir  Spd
kts
Gust
kts
Height
m
Period
s
Dir
16/08:00pm SW 3 5 - - - - - - - 4.3 1025.8 1.0
16/07:30pm SW 5 6 - - - - - - - 3.9 1025.4 1.0
16/07:00pm SW 6 7 - - - - - - - 4.6 1024.7 1.0
16/06:30pm WSW 8 9 - - - - - - - 5.6 1024.0 1.0
16/06:00pm SW 12 15 - - - - - - - 7.3 1023.4 1.0
16/05:30pm SSW 13 18 - - - - - - - 8.4 1022.9 1.0
16/05:00pm SSW 15 22 - - - - - - - 9.0 1022.4 1.0
16/04:30pm SSW 16 23 - - - - - - - 9.2 1021.9 1.0
16/04:00pm SSW 16 24 - - - - - - - 10.2 1021.4 1.0
16/03:30pm SW 14 19 - - - - - - - 9.9 1021.3 1.0
16/03:00pm SSW 18 23 - - - - - - - 9.1 1020.9 1.0
16/02:31pm SSW 21 31 - - - - - - - 9.5 1020.7 1.0
16/02:30pm SSW 22 31 - - - - - - - 9.4 1020.7 1.0
16/02:21pm SSW 20 30 - - - - - - - 9.9 1020.4 1.0
16/02:00pm SW 20 27 - - - - - - - 11.1 1020.0 1.0
16/01:54pm SW 20 26 - - - - - - - 10.8 1020.0 1.0
16/01:30pm SSW 13 18 - - - - - - - 10.3 1019.8 1.0
16/01:06pm SSW 18 24 - - - - - - - 10.3 1019.9 1.0
16/01:00pm SW 20 26 - - - - - - - 10.8 1019.8 1.0
16/12:51pm SW 15 26 - - - - - - - 10.1 1019.6 1.0
16/12:30pm SW 16 22 - - - - - - - 9.8 1019.6 1.0
16/12:00pm SW 16 21 - - - - - - Recent precip. 9.6 1019.5 0.8
16/11:30am SW 14 19 - - - - - - - 8.5 1019.3 0.8
16/11:29am SW 14 19 - - - - - - - 8.1 1019.3 0.8
16/11:00am SSW 20 43 - - - - - - - 7.5 1019.6 0.2
16/10:59am SSW 19 43 - - - - - - - 8.2 1019.3 0.2
16/10:30am SW 18 33 - - - - - - - 7.8 1018.8 0.2
16/10:25am SW 20 33 - - - - - - - 9.9 1018.7 0.0
16/10:00am SW 16 21 - - - - - - - 9.6 1018.3 0.0
16/09:30am SW 20 27 - - - - - - - 8.8 1018.3 0.0
16/09:16am SW 20 30 - - - - - - - 8.4 1018.0 0.0
16/09:14am SW 19 28 - - - - - - - 8.6 1018.0 0.0
16/09:00am SW 13 17 - - - - - - - 9.3 1017.7 0.6
16/08:30am SSW 13 17 - - - - - - - 7.8 1017.5 0.6
16/08:00am SW 22 37 - - - - - - - 6.0 1017.0 0.6
16/07:55am SW 17 37 - - - - - - - 5.4 1017.1 0.6
16/07:30am SW 14 17 - - - - - - - 7.4 1016.2 0.4
16/07:00am SW 17 23 - - - - - - - 6.7 1015.9 0.4
16/06:30am SW 14 19 - - - - - - - 7.2 1015.3 0.4
16/06:00am WSW 16 21 - - - - - - - 6.9 1014.6 0.4
16/05:30am WSW 18 26 - - - - - - - 7.3 1013.9 0.4
16/05:07am WSW 20 30 - - - - - - - 7.0 1013.4 0.4
16/05:00am WSW 23 30 - - - - - - - 7.3 1013.3 0.4
16/04:40am WSW 17 27 - - - - - - - 8.2 1012.9 0.4
16/04:30am WSW 21 28 - - - - - - - 8.3 1012.8 0.4
16/04:03am WSW 21 31 - - - - - - - 8.3 1012.3 0.4
16/04:00am WSW 22 31 - - - - - - - 8.3 1012.1 0.4
16/03:58am WSW 21 31 - - - - - - - 8.5 1012.0 0.4
16/03:30am WSW 22 31 - - - - - - - 8.4 1011.9 0.4
16/03:26am WSW 21 31 - - - - - - - 8.3 1011.8 0.4
16/03:00am WSW 19 27 - - - - - - - 8.6 1011.3 0.4
16/02:30am WSW 20 30 - - - - - - - 8.7 1011.1 0.4
16/02:09am WSW 18 29 - - - - - - - 9.0 1011.1 0.4
16/02:00am WSW 18 25 - - - - - - - 8.9 1011.0 0.4
16/01:30am WSW 20 27 - - - - - - - 8.7 1011.1 0.4
16/01:20am WSW 16 26 - - - - - - - 9.3 1010.9 0.4
16/01:00am W 18 25 - - - - - - - 9.6 1010.8 0.2
16/12:30am W 20 32 - - - - - - - 9.6 1010.7 0.2
16/12:29am W 20 32 - - - - - - - 9.5 1010.6 0.2
16/12:00am W 14 21 - - - - - - Recent precip. 9.3 1010.8 0.2
 
Date/Time
EST
Wind Sea
Height
m
Swell Vis
km
Cloud Weather Temp
°C
Press
hPa
Rain since
9am
mm
Dir  Spd
kts
Gust
kts
Height
m
Period
s
Dir
15/11:30pm W 15 20 - - - - - - - 9.3 1011.1 0.2
15/11:00pm W 11 15 - - - - - - - 9.5 1011.1 0.0
15/10:30pm W 13 17 - - - - - - - 9.2 1011.1 0.0
15/10:00pm W 13 15 - - - - - - - 9.1 1011.0 0.0
15/09:30pm W 9 11 - - - - - - - 8.6 1011.2 0.0
15/09:00pm W 8 9 - - - - - - - 9.0 1011.3 0.0
15/08:30pm W 9 14 - - - - - - - 9.4 1011.5 0.0
15/08:00pm W 8 10 - - - - - - - 9.3 1011.6 0.0
15/07:30pm W 9 13 - - - - - - - 9.8 1011.6 0.0
15/07:00pm W 8 11 - - - - - - - 10.1 1011.4 0.0
15/06:30pm WSW 7 9 - - - - - - - 10.3 1011.3 0.0
15/06:00pm W 9 12 - - - - - - - 10.8 1011.2 0.0
15/05:30pm W 10 13 - - - - - - - 11.3 1010.9 0.0
15/05:00pm W 9 14 - - - - - - - 11.8 1010.5 0.0
15/04:30pm WSW 9 13 - - - - - - - 12.6 1010.5 0.0
15/04:00pm W 10 13 - - - - - - - 12.7 1010.6 0.0
15/03:30pm W 10 14 - - - - - - - 12.9 1010.6 0.0
15/03:00pm W 11 13 - - - - - - - 13.1 1010.7 0.0
15/02:30pm W 10 15 - - - - - - - 14.0 1011.3 0.0
15/02:00pm W 12 15 - - - - - - - 13.5 1011.8 0.0
15/01:30pm WNW 12 16 - - - - - - - 13.6 1012.0 0.0
15/01:00pm W 12 15 - - - - - - - 13.9 1012.0 0.0
15/12:30pm W 11 15 - - - - - - - 14.4 1012.5 0.0
15/12:00pm W 10 13 - - - - - - - 14.5 1012.5 0.0
15/11:30am WSW 9 12 - - - - - - - 14.7 1012.4 0.0
15/11:00am WSW 11 15 - - - - - - - 14.2 1013.2 0.0
15/10:30am WSW 9 11 - - - - - - - 14.6 1013.8 0.0
15/10:00am W 9 14 - - - - - - - 13.5 1014.0 0.0
15/09:30am WSW 8 11 - - - - - - - 12.9 1014.1 0.0
15/09:00am WSW 7 10 - - - - - - - 12.2 1014.0 5.0
15/08:30am WSW 7 9 - - - - - - - 11.9 1014.1 5.0
15/08:00am SW 10 14 - - - - - - - 11.7 1014.2 5.0
15/07:30am WSW 11 15 - - - - - - - 12.0 1014.2 4.8
15/07:00am WSW 14 17 - - - - - - - 11.9 1013.6 4.4
15/06:30am WSW 11 15 - - - - - - - 12.4 1013.5 4.0
15/06:00am WSW 11 14 - - - - - - Recent precip. 12.4 1013.5 4.0
15/05:30am WSW 12 18 - - - - - - - 12.5 1013.3 3.8
15/05:00am W 12 15 - - - - - - - 12.6 1013.1 3.8
15/04:30am W 16 22 - - - - - - - 12.7 1013.0 3.6
15/04:00am W 15 21 - - - - - - - 12.7 1012.9 3.6
15/03:30am W 15 20 - - - - - - - 12.7 1013.2 3.6
15/03:00am WNW 17 23 - - - - - - Recent precip. 12.8 1013.3 2.8
15/02:30am WNW 16 21 - - - - - - - 12.7 1013.6 2.6
15/02:00am WNW 12 16 - - - - - - - 12.4 1014.0 2.0
15/01:30am NW 7 9 - - - - - - - 12.0 1014.2 1.4
15/01:00am NW 6 8 - - - - - - - 11.6 1014.8 1.4
15/12:30am CALM 0 0 - - - - - - - 10.8 1015.4 1.4
15/12:00am NW 3 5 - - - - - - - 11.1 1015.8 1.2
 
Date/Time
EST
Wind Sea
Height
m
Swell Vis
km
Cloud Weather Temp
°C
Press
hPa
Rain since
9am
mm
Dir  Spd
kts
Gust
kts
Height
m
Period
s
Dir
14/11:30pm CALM 0 5 - - - - - - - 10.8 1016.1 1.2
14/11:00pm CALM 0 0 - - - - - - - 10.6 1016.6 1.2
14/10:30pm CALM 0 0 - - - - - - - 10.6 1016.9 1.2
14/10:00pm CALM 0 0 - - - - - - - 10.5 1017.2 1.2
14/09:30pm NNW 6 7 - - - - - - - 10.7 1018.0 1.2
14/09:00pm NNW 7 9 - - - - - - Recent precip. 10.7 1018.2 1.2
14/08:30pm NW 6 8 - - - - - - - 10.7 1019.1 1.0
14/08:00pm W 5 9 - - - - - - - 10.9 1020.0 0.2
14/07:30pm WNW 7 11 - - - - - - - 10.9 1020.3 0.0
14/07:00pm NW 7 9 - - - - - - - 10.8 1018.9 0.0
14/06:30pm NW 6 7 - - - - - - - 10.8 1018.9 0.0
14/06:00pm WNW 7 9 - - - - - - - 11.2 1019.2 0.0
14/05:30pm WNW 10 12 - - - - - - - 11.7 1019.6 0.0
14/05:00pm WNW 12 17 - - - - - - - 12.4 1019.8 0.0
14/04:30pm NW 12 17 - - - - - - - 12.5 1020.0 0.0
14/04:00pm NW 13 17 - - - - - - - 12.5 1020.2 0.0
14/03:30pm NW 12 17 - - - - - - - 13.2 1020.2 0.0
14/03:00pm NW 11 14 - - - - - - - 13.8 1020.5 0.0
14/02:30pm W 11 14 - - - - - - - 14.0 1020.7 0.0
14/02:00pm W 13 17 - - - - - - - 13.9 1021.2 0.0
14/01:30pm W 13 15 - - - - - - - 14.2 1021.5 0.0
14/01:00pm W 12 15 - - - - - - - 14.2 1021.7 0.0
14/12:30pm W 14 17 - - - - - - - 12.9 1022.2 0.0
14/12:00pm W 14 17 - - - - - - - 13.3 1022.4 0.0
14/11:30am W 14 19 - - - - - - - 12.9 1022.6 0.0
14/11:00am WSW 14 20 - - - - - - - 12.8 1022.8 0.0
14/10:30am WSW 14 19 - - - - - - - 12.1 1022.9 0.0
14/10:00am WSW 14 17 - - - - - - - 12.4 1022.9 0.0
14/09:30am WSW 17 22 - - - - - - - 12.0 1022.8 0.0
14/09:00am WSW 13 20 - - - - - - - 11.8 1022.8 4.8
14/08:30am WSW 9 13 - - - - - - - 11.6 1022.5 4.8
14/08:00am WSW 8 10 - - - - - - - 10.6 1022.5 4.8
14/07:30am WSW 9 11 - - - - - - - 9.8 1022.3 4.8
14/07:00am WSW 9 11 - - - - - - - 8.1 1022.1 4.8
14/06:30am WSW 10 11 - - - - - - - 7.9 1021.9 4.8
14/06:00am WSW 10 13 - - - - - - - 8.2 1021.7 4.8
14/05:30am WSW 13 18 - - - - - - - 8.7 1021.3 4.8
14/05:00am WSW 14 19 - - - - - - - 8.6 1021.1 4.8
14/04:30am WSW 13 16 - - - - - - - 8.6 1020.9 4.8
14/04:00am WSW 15 19 - - - - - - - 9.2 1020.8 4.8
14/03:30am SW 15 20 - - - - - - - 9.2 1020.9 4.8
14/03:00am WSW 13 17 - - - - - - - 9.5 1020.9 4.8
14/02:30am WSW 12 15 - - - - - - - 8.6 1021.3 4.8
14/02:00am WSW 9 11 - - - - - - - 8.7 1021.6 4.8
14/01:30am WSW 10 16 - - - - - - - 9.0 1021.3 4.8
14/01:00am WSW 13 17 - - - - - - - 9.8 1021.0 4.8
14/12:30am WSW 9 13 - - - - - - - 9.4 1020.9 4.8
14/12:00am WSW 12 16 - - - - - - - 9.6 1020.6 4.8
 
Date/Time
EST
Wind Sea
Height
m
Swell Vis
km
Cloud Weather Temp
°C
Press
hPa
Rain since
9am
mm
Dir  Spd
kts
Gust
kts
Height
m
Period
s
Dir
13/11:30pm WSW 11 15 - - - - - - - 9.4 1020.2 4.8
13/11:00pm WSW 12 19 - - - - - - - 9.7 1020.0 4.8
13/10:30pm WSW 14 19 - - - - - - - 9.9 1019.9 4.8
13/10:00pm W 15 20 - - - - - - - 9.9 1019.5 4.8
13/09:30pm WSW 14 19 - - - - - - - 10.0 1019.4 4.8
13/09:00pm WSW 13 17 - - - - - - - 9.6 1018.8 4.8
13/08:30pm WSW 13 16 - - - - - - - 9.8 1018.6 4.8

Other formats

Comma delimited format used in spreadsheet applications
http://www.bom.gov.au/fwo/IDV60701/IDV60701.94953.axf

JavaScript Object Notation format (JSON) in row-major order
http://www.bom.gov.au/fwo/IDV60701/IDV60701.94953.json

Data quality

Most of these data are generated automatically and are frequently updated. Quality checks on data are not normally performed. It is possible for incorrect values to appear. Refer to information at About Latest Weather Observations and please check the disclaimer before using these data.